Time;durP1;ratioP1;P1;durP2;ratioP2;P2;SDS_P1;SDS_P2;PMS_P1;PMS_P2;Temp;Humidity;BMP_temperature;BMP_pressure;BME280_temperature;BME280_humidity;BME280_pressure;Samples;Min_cycle;Max_cycle;Signal;HPM_P1;HPM_P2
2021/08/02 00:00:13;;;;;;;14.55;6.45;;;691.90;1612.80;;;;;;5034434;28;20025;-75
2021/08/02 00:02:47;;;;;;;24.75;6.47;;;691.80;1638.40;;;;;;5035997;28;20032;-75
2021/08/02 00:05:14;;;;;;;22.30;6.68;;;691.70;1638.40;;;;;;5041044;28;20028;-75
2021/08/02 00:07:41;;;;;;;18.75;6.78;;;691.70;1664.00;;;;;;5039147;28;20018;-75
2021/08/02 00:10:15;;;;;;;20.63;7.60;;;691.60;1638.40;;;;;;5039222;28;20022;-75
2021/08/02 00:12:45;;;;;;;23.75;8.43;;;691.50;1664.00;;;;;;5035389;28;20029;-74
2021/08/02 00:15:12;;;;;;;26.42;8.27;;;691.50;1638.40;;;;;;5032423;28;20124;-76
2021/08/02 00:17:40;;;;;;;29.83;7.47;;;691.40;1638.40;;;;;;5031912;28;20418;-75
2021/08/02 00:20:09;;;;;;;25.30;7.93;;;691.50;1638.40;;;;;;5036645;28;20076;-74
2021/08/02 00:22:35;;;;;;;26.23;6.70;;;691.40;1638.40;;;;;;5036421;28;20105;-74
2021/08/02 00:25:01;;;;;;;21.55;6.95;;;691.40;1689.60;;;;;;5036507;28;20018;-74
2021/08/02 00:27:27;;;;;;;19.48;7.15;;;691.30;1638.40;;;;;;5036291;28;20060;-75
2021/08/02 00:29:53;;;;;;;21.45;8.15;;;691.30;1638.40;;;;;;5036170;28;20026;-74
2021/08/02 00:32:19;;;;;;;16.88;7.63;;;691.20;1612.80;;;;;;5036183;28;20064;-74
2021/08/02 00:34:45;;;;;;;16.63;5.72;;;666.50;1612.80;;;;;;5034757;28;20038;-74
2021/08/02 00:37:18;;;;;;;24.27;8.25;;;666.40;1612.80;;;;;;5035707;28;20466;-74
2021/08/02 00:39:57;;;;;;;17.73;7.47;;;666.30;1664.00;;;;;;5027813;28;20374;-74
2021/08/02 00:42:42;;;;;;;21.35;6.50;;;666.20;1638.40;;;;;;5027604;28;20022;-74
2021/08/02 00:45:11;;;;;;;30.02;7.53;;;666.10;1689.60;;;;;;5035936;28;20036;-75
2021/08/02 00:48:18;;;;;;;21.25;7.32;;;666.10;1689.60;;;;;;5035880;28;20021;-74
2021/08/02 00:50:46;;;;;;;19.50;7.85;;;666.10;1664.00;;;;;;4994493;28;20054;-74
2021/08/02 00:53:31;;;;;;;18.65;7.00;;;666.00;1689.60;;;;;;4994082;28;20034;-74
2021/08/02 00:56:03;;;;;;;26.42;7.00;;;666.00;1715.20;;;;;;4994239;28;20030;-74
2021/08/02 00:58:31;;;;;;;30.50;7.28;;;665.80;1715.20;;;;;;4994491;28;20535;-75
2021/08/02 01:00:57;;;;;;;21.35;7.72;;;665.80;1740.80;;;;;;4993946;28;20169;-74
2021/08/02 01:03:24;;;;;;;23.25;7.20;;;665.70;1740.80;;;;;;4994302;28;20558;-74
2021/08/02 01:05:55;;;;;;;22.30;7.18;;;665.80;1766.40;;;;;;4993954;28;20423;-74
2021/08/02 01:08:30;;;;;;;19.25;7.10;;;665.80;1766.40;;;;;;4993952;28;20101;-74
2021/08/02 01:11:00;;;;;;;21.95;7.43;;;665.80;1766.40;;;;;;4993783;28;20037;-74
2021/08/02 01:13:28;;;;;;;15.23;6.93;;;665.80;1766.40;;;;;;4993709;28;20052;-73
2021/08/02 01:15:58;;;;;;;24.58;6.97;;;666.00;1766.40;;;;;;4983482;28;20049;-73
2021/08/02 01:18:24;;;;;;;13.65;6.22;;;665.70;1766.40;;;;;;4985853;28;20414;-74
2021/08/02 01:20:54;;;;;;;18.15;7.47;;;665.80;1766.40;;;;;;4988011;28;20031;-74
2021/08/02 01:23:21;;;;;;;21.05;6.72;;;665.80;1766.40;;;;;;4975317;28;20038;-72
2021/08/02 01:25:56;;;;;;;18.70;6.97;;;665.70;1792.00;;;;;;4992819;28;20091;-74
2021/08/02 01:28:25;;;;;;;27.50;8.88;;;665.70;1792.00;;;;;;5035738;28;20048;-73
2021/08/02 01:30:52;;;;;;;22.00;7.38;;;665.60;1792.00;;;;;;5034516;28;20029;-73
2021/08/02 01:33:20;;;;;;;20.17;7.97;;;665.60;1792.00;;;;;;5034701;28;20059;-74
2021/08/02 01:35:46;;;;;;;18.33;7.55;;;640.90;1792.00;;;;;;5034554;28;20029;-74
2021/08/02 01:38:13;;;;;;;27.88;7.88;;;640.70;1792.00;;;;;;5034920;28;20025;-74
2021/08/02 01:40:40;;;;;;;22.83;6.93;;;640.60;1792.00;;;;;;5034652;28;20021;-74
2021/08/02 01:43:08;;;;;;;23.05;6.90;;;640.60;1792.00;;;;;;5034621;28;20022;-74
2021/08/02 01:45:58;;;;;;;17.52;6.15;;;640.60;1792.00;;;;;;5034612;28;20029;-73
2021/08/02 01:48:43;;;;;;;32.45;8.50;;;640.60;1792.00;;;;;;5034609;28;20026;-74
2021/08/02 01:51:17;;;;;;;25.30;6.78;;;640.50;1817.60;;;;;;5034668;28;20029;-74
2021/08/02 01:54:07;;;;;;;21.65;7.40;;;640.40;1817.60;;;;;;5034396;28;20108;-73
2021/08/02 01:56:45;;;;;;;20.50;6.55;;;640.40;1817.60;;;;;;5034272;28;20051;-74
2021/08/02 01:59:21;;;;;;;15.75;6.22;;;640.40;1817.60;;;;;;5036534;28;20022;-75
2021/08/02 02:02:02;;;;;;;22.67;7.95;;;640.40;1817.60;;;;;;5037682;28;20021;-73
2021/08/02 02:04:32;;;;;;;25.67;7.93;;;640.40;1817.60;;;;;;5036567;28;20068;-74
2021/08/02 02:07:00;;;;;;;18.95;5.78;;;640.30;1817.60;;;;;;5037989;28;20022;-74
2021/08/02 02:09:29;;;;;;;19.75;6.57;;;640.40;1817.60;;;;;;5040733;28;20063;-74
2021/08/02 02:11:59;;;;;;;22.85;5.80;;;640.20;1817.60;;;;;;5044109;28;20014;-74
2021/08/02 02:14:27;;;;;;;23.08;7.88;;;640.10;1817.60;;;;;;5037230;28;20108;-74
2021/08/02 02:16:56;;;;;;;23.73;7.28;;;640.00;1817.60;;;;;;5034285;28;20052;-74
2021/08/02 02:19:23;;;;;;;16.77;5.95;;;640.00;1817.60;;;;;;5034511;28;20022;-73
2021/08/02 02:21:51;;;;;;;20.45;7.25;;;615.30;1817.60;;;;;;5034080;28;20083;-73
2021/08/02 02:24:18;;;;;;;17.42;7.13;;;615.20;1817.60;;;;;;5034017;28;20018;-74
2021/08/02 02:26:46;;;;;;;15.48;6.00;;;615.30;1817.60;;;;;;5033803;28;20056;-74
2021/08/02 02:29:15;;;;;;;22.25;7.00;;;615.20;1817.60;;;;;;5034001;28;20025;-74
2021/08/02 02:31:44;;;;;;;16.88;6.25;;;615.20;1817.60;;;;;;5033651;28;20128;-74
2021/08/02 02:34:11;;;;;;;26.25;7.75;;;615.30;1817.60;;;;;;5033716;28;20127;-74
2021/08/02 02:36:39;;;;;;;19.58;7.50;;;615.30;1817.60;;;;;;5033954;28;20481;-74
2021/08/02 02:39:06;;;;;;;20.38;6.47;;;615.30;1817.60;;;;;;5033670;28;20051;-74
2021/08/02 02:41:33;;;;;;;18.98;7.30;;;640.00;1817.60;;;;;;5033074;28;20025;-74
2021/08/02 02:44:00;;;;;;;21.80;7.20;;;640.00;1817.60;;;;;;5033907;28;20036;-75
2021/08/02 02:46:27;;;;;;;27.67;6.88;;;640.10;1817.60;;;;;;5033674;28;20075;-74
2021/08/02 02:48:56;;;;;;;25.90;8.60;;;640.10;1792.00;;;;;;5033717;28;20444;-73
2021/08/02 02:51:23;;;;;;;19.67;7.05;;;640.10;1792.00;;;;;;5033250;28;20466;-73
2021/08/02 02:53:50;;;;;;;28.40;7.60;;;640.10;1766.40;;;;;;5033202;28;20033;-73
2021/08/02 02:56:17;;;;;;;36.03;9.15;;;640.00;1792.00;;;;;;5033212;28;20104;-73
2021/08/02 02:58:44;;;;;;;21.20;6.35;;;640.00;1792.00;;;;;;5033296;28;20025;-74
2021/08/02 03:01:14;;;;;;;23.67;6.60;;;640.10;1817.60;;;;;;5033336;28;20058;-73
2021/08/02 03:03:45;;;;;;;16.27;6.55;;;640.10;1817.60;;;;;;5033179;28;20025;-73
2021/08/02 03:06:12;;;;;;;18.63;6.13;;;640.20;1792.00;;;;;;5033151;28;20148;-74
2021/08/02 03:08:40;;;;;;;16.33;6.95;;;640.20;1792.00;;;;;;5033226;28;20417;-74
2021/08/02 03:11:06;;;;;;;20.60;7.95;;;640.30;1792.00;;;;;;5032118;28;20397;-74
2021/08/02 03:13:32;;;;;;;17.13;7.35;;;640.30;1792.00;;;;;;5033035;28;20026;-76
2021/08/02 03:15:58;;;;;;;19.80;6.00;;;640.30;1792.00;;;;;;5033140;28;20033;-73
2021/08/02 03:18:24;;;;;;;16.75;7.75;;;640.30;1817.60;;;;;;5033211;28;20029;-73
2021/08/02 03:20:49;;;;;;;18.17;7.10;;;640.40;1817.60;;;;;;5033477;28;20056;-74
2021/08/02 03:23:34;;;;;;;24.25;7.95;;;640.30;1817.60;;;;;;5033132;28;20014;-75
2021/08/02 03:26:09;;;;;;;18.30;6.45;;;640.20;1817.60;;;;;;5033000;28;20481;-73
2021/08/02 03:28:54;;;;;;;22.13;7.10;;;640.10;1843.20;;;;;;5033476;28;20025;-73
2021/08/02 03:31:50;;;;;;;17.67;7.30;;;640.20;1843.20;;;;;;5032033;28;20037;-73
2021/08/02 03:34:21;;;;;;;15.65;7.15;;;640.20;1868.80;;;;;;5014382;28;20042;-74
2021/08/02 03:36:49;;;;;;;20.10;6.30;;;640.30;1868.80;;;;;;5033061;28;20024;-74
2021/08/02 03:39:18;;;;;;;22.13;7.47;;;640.30;1868.80;;;;;;5033007;28;20474;-73
2021/08/02 03:41:44;;;;;;;20.42;7.40;;;640.30;1843.20;;;;;;5031776;28;20362;-73
2021/08/02 03:44:14;;;;;;;16.45;7.30;;;640.30;1868.80;;;;;;5033034;28;20523;-74
2021/08/02 03:46:41;;;;;;;23.15;6.45;;;640.30;1868.80;;;;;;5033030;28;20030;-74
2021/08/02 03:49:08;;;;;;;20.85;8.00;;;640.30;1894.40;;;;;;5033191;28;20031;-74
2021/08/02 03:51:53;;;;;;;28.00;8.57;;;640.30;1894.40;;;;;;5032910;28;20466;-74
2021/08/02 03:54:19;;;;;;;19.83;7.55;;;640.30;1894.40;;;;;;5036047;28;20145;-74
2021/08/02 03:56:45;;;;;;;16.17;7.00;;;640.30;1894.40;;;;;;5036678;28;20469;-74
2021/08/02 03:59:13;;;;;;;17.20;7.07;;;640.30;1894.40;;;;;;5036714;28;20030;-73
2021/08/02 04:01:38;;;;;;;20.52;6.93;;;640.20;1920.00;;;;;;5036949;28;20060;-74
2021/08/02 04:04:05;;;;;;;21.83;7.55;;;640.10;1945.60;;;;;;5036808;28;20104;-73
2021/08/02 04:06:31;;;;;;;23.50;9.32;;;640.20;1945.60;;;;;;5037201;28;20018;-74
2021/08/02 04:08:56;;;;;;;17.20;7.68;;;640.20;1945.60;;;;;;5036504;28;20029;-74
2021/08/02 04:11:22;;;;;;;22.77;8.00;;;640.30;1971.20;;;;;;5036411;28;20112;-73
2021/08/02 04:13:48;;;;;;;21.35;7.47;;;640.30;1945.60;;;;;;5036332;28;20096;-74
2021/08/02 04:16:14;;;;;;;19.17;8.02;;;640.30;1971.20;;;;;;5035932;28;20040;-75
2021/08/02 04:18:40;;;;;;;20.35;7.32;;;640.30;1945.60;;;;;;5036527;28;20025;-74
2021/08/02 04:21:05;;;;;;;17.10;7.53;;;640.30;1945.60;;;;;;5036200;28;20052;-74
2021/08/02 04:23:31;;;;;;;20.33;7.50;;;640.30;1971.20;;;;;;5036201;28;20381;-77
2021/08/02 04:25:57;;;;;;;19.48;7.18;;;640.20;1996.80;;;;;;5035258;28;20029;-74
2021/08/02 04:28:23;;;;;;;18.67;6.25;;;640.10;1996.80;;;;;;5036022;28;20088;-73
2021/08/02 04:30:48;;;;;;;20.48;7.50;;;640.00;1996.80;;;;;;5035664;28;20293;-74
2021/08/02 04:33:14;;;;;;;22.42;8.13;;;640.00;2022.40;;;;;;5035900;28;20017;-74
2021/08/02 04:35:41;;;;;;;18.92;7.22;;;640.00;2022.40;;;;;;5036241;28;20100;-74
2021/08/02 04:38:07;;;;;;;20.83;7.10;;;640.10;2022.40;;;;;;5035828;28;20021;-74
2021/08/02 04:40:33;;;;;;;22.55;7.18;;;640.00;2022.40;;;;;;5035546;28;20035;-74
2021/08/02 04:42:59;;;;;;;22.52;7.82;;;615.30;2048.00;;;;;;5036190;28;20025;-73
2021/08/02 04:45:25;;;;;;;21.33;8.02;;;615.30;2048.00;;;;;;5036005;28;20032;-74
2021/08/02 04:47:51;;;;;;;27.27;8.32;;;615.30;2048.00;;;;;;5035972;28;20033;-75
2021/08/02 04:50:17;;;;;;;15.25;8.05;;;640.00;2048.00;;;;;;5035995;28;20017;-73
2021/08/02 04:52:44;;;;;;;20.35;8.30;;;640.00;2048.00;;;;;;5035375;28;20029;-74
2021/08/02 04:55:10;;;;;;;17.33;8.10;;;640.00;2048.00;;;;;;5036145;28;20041;-74
2021/08/02 04:57:36;;;;;;;26.70;6.93;;;640.00;2048.00;;;;;;5036129;28;20108;-74
2021/08/02 05:00:05;;;;;;;22.52;10.05;;;640.00;2022.40;;;;;;5035748;28;20037;-74
2021/08/02 05:02:31;;;;;;;16.73;6.45;;;640.00;2022.40;;;;;;5035812;28;20022;-75
2021/08/02 05:04:56;;;;;;;21.50;8.70;;;640.00;2022.40;;;;;;5034985;28;20036;-74
2021/08/02 05:07:22;;;;;;;23.83;8.80;;;640.20;2022.40;;;;;;5035429;28;20083;-75
2021/08/02 05:09:48;;;;;;;23.05;9.13;;;640.30;2022.40;;;;;;5035782;28;20087;-76
2021/08/02 05:12:13;;;;;;;24.10;8.27;;;640.40;2022.40;;;;;;5035390;28;20022;-75
2021/08/02 05:14:39;;;;;;;18.17;7.15;;;640.50;1996.80;;;;;;5035451;28;20373;-76
2021/08/02 05:17:07;;;;;;;21.23;7.68;;;640.50;1996.80;;;;;;5035968;28;20033;-74
2021/08/02 05:19:33;;;;;;;16.67;6.25;;;640.60;1996.80;;;;;;5035240;28;20452;-74
2021/08/02 05:21:59;;;;;;;19.95;7.80;;;640.60;1996.80;;;;;;5035256;28;20017;-73
2021/08/02 05:24:25;;;;;;;16.67;7.60;;;640.60;1996.80;;;;;;5035333;28;20428;-74
2021/08/02 05:26:50;;;;;;;20.40;7.22;;;640.70;1996.80;;;;;;5034953;28;20042;-74
2021/08/02 05:29:16;;;;;;;16.23;7.30;;;640.80;1971.20;;;;;;5035185;28;20033;-74
2021/08/02 05:31:42;;;;;;;16.42;6.63;;;640.90;1945.60;;;;;;5035169;28;20389;-74
2021/08/02 05:34:07;;;;;;;18.63;6.55;;;665.60;1971.20;;;;;;5035145;28;20053;-75
2021/08/02 05:36:34;;;;;;;17.52;6.03;;;665.70;1945.60;;;;;;5035080;28;20373;-74
2021/08/02 05:38:59;;;;;;;14.05;5.70;;;665.80;1971.20;;;;;;5035067;28;20112;-75
2021/08/02 05:41:25;;;;;;;12.75;5.85;;;665.80;1945.60;;;;;;5034938;28;20104;-74
2021/08/02 05:43:51;;;;;;;20.92;7.28;;;665.90;1920.00;;;;;;5034762;28;20051;-74
2021/08/02 05:46:17;;;;;;;17.48;5.95;;;666.00;1868.80;;;;;;5035023;28;20056;-74
2021/08/02 05:48:43;;;;;;;12.27;6.13;;;666.10;1894.40;;;;;;5034877;28;20053;-74
2021/08/02 05:51:09;;;;;;;14.07;5.95;;;666.20;1920.00;;;;;;5034885;28;20091;-73
2021/08/02 05:53:35;;;;;;;14.23;5.95;;;666.20;1920.00;;;;;;5034815;28;20030;-74
2021/08/02 05:56:01;;;;;;;14.02;5.88;;;666.40;1894.40;;;;;;5034627;28;20105;-74
2021/08/02 05:58:27;;;;;;;12.35;5.15;;;666.30;1894.40;;;;;;5035019;28;20017;-74
2021/08/02 06:00:53;;;;;;;14.77;5.15;;;666.40;1843.20;;;;;;5033782;28;20041;-73
2021/08/02 06:03:19;;;;;;;12.55;6.28;;;666.40;1843.20;;;;;;5033743;28;20106;-74
2021/08/02 06:05:44;;;;;;;9.15;4.70;;;691.40;1843.20;;;;;;5034814;28;20377;-73
2021/08/02 06:08:10;;;;;;;13.82;5.30;;;691.20;1868.80;;;;;;5033408;28;20112;-74
2021/08/02 06:10:37;;;;;;;14.10;5.15;;;691.20;1894.40;;;;;;5034410;28;20043;-74
2021/08/02 06:13:03;;;;;;;11.43;5.60;;;691.20;1894.40;;;;;;5034277;28;20025;-74
2021/08/02 06:15:29;;;;;;;12.73;4.88;;;691.30;1843.20;;;;;;5034161;28;20034;-74
2021/08/02 06:17:54;;;;;;;13.98;6.57;;;691.30;1868.80;;;;;;5034089;28;20018;-74
2021/08/02 06:20:20;;;;;;;8.13;4.88;;;691.40;1868.80;;;;;;5034130;28;20025;-74
2021/08/02 06:22:46;;;;;;;10.50;5.30;;;691.30;1868.80;;;;;;5034108;28;20029;-73
2021/08/02 06:25:12;;;;;;;16.55;5.25;;;691.40;1868.80;;;;;;5034230;28;20029;-74
2021/08/02 06:27:38;;;;;;;9.90;5.18;;;691.50;1868.80;;;;;;5034096;28;20493;-73
2021/08/02 06:30:05;;;;;;;12.02;5.28;;;691.50;1920.00;;;;;;5033810;28;20084;-73
2021/08/02 06:32:32;;;;;;;9.95;5.07;;;691.60;1868.80;;;;;;5032692;28;20049;-74
2021/08/02 06:34:58;;;;;;;13.68;5.18;;;691.70;1843.20;;;;;;5034089;28;20036;-73
2021/08/02 06:37:26;;;;;;;10.98;5.30;;;691.60;1894.40;;;;;;5034067;28;20470;-74
2021/08/02 06:39:52;;;;;;;10.10;5.13;;;691.70;1868.80;;;;;;5033757;28;20022;-73
2021/08/02 06:42:19;;;;;;;11.23;5.53;;;691.70;1868.80;;;;;;5033972;28;20095;-74
2021/08/02 06:44:45;;;;;;;8.13;4.90;;;691.70;1894.40;;;;;;5033985;28;20032;-73
2021/08/02 06:47:11;;;;;;;14.68;4.88;;;691.70;1868.80;;;;;;5033909;28;20021;-73
2021/08/02 06:49:37;;;;;;;12.45;5.40;;;691.80;1868.80;;;;;;5033561;28;20456;-74
2021/08/02 06:52:04;;;;;;;9.43;5.60;;;691.80;1868.80;;;;;;5034052;28;20022;-75
2021/08/02 06:54:30;;;;;;;12.68;4.95;;;691.90;1868.80;;;;;;5033592;28;20042;-74
2021/08/02 06:56:56;;;;;;;11.23;5.43;;;691.90;1868.80;;;;;;5033733;28;20021;-73
2021/08/02 06:59:22;;;;;;;12.40;4.97;;;691.80;1868.80;;;;;;5033712;28;20025;-73
2021/08/02 07:01:48;;;;;;;10.75;4.93;;;692.10;1920.00;;;;;;5033482;28;20052;-75
2021/08/02 07:04:14;;;;;;;9.88;4.18;;;692.10;1920.00;;;;;;5033898;28;20470;-76
2021/08/02 07:06:41;;;;;;;10.98;4.88;;;716.80;1920.00;;;;;;5033740;28;20033;-75
2021/08/02 07:09:08;;;;;;;12.15;5.90;;;716.80;1920.00;;;;;;5033519;28;20449;-74
2021/08/02 07:11:34;;;;;;;10.77;4.78;;;716.90;1894.40;;;;;;5033740;28;20032;-74
2021/08/02 07:13:59;;;;;;;12.10;5.53;;;717.00;1920.00;;;;;;5033541;28;20532;-74
2021/08/02 07:16:25;;;;;;;13.20;5.45;;;717.00;1920.00;;;;;;5033571;28;20030;-75
2021/08/02 07:18:52;;;;;;;9.13;4.90;;;717.00;1920.00;;;;;;5033572;28;20413;-75
2021/08/02 07:21:18;;;;;;;10.85;5.35;;;717.10;1920.00;;;;;;5033285;28;20022;-73
2021/08/02 07:23:45;;;;;;;10.68;5.15;;;717.20;1920.00;;;;;;5033359;28;20029;-74
2021/08/02 07:26:10;;;;;;;12.95;5.32;;;717.40;1894.40;;;;;;5033287;28;20024;-74
2021/08/02 07:28:36;;;;;;;9.23;5.47;;;717.20;1868.80;;;;;;5037047;28;20104;-75
2021/08/02 07:31:02;;;;;;;10.27;5.55;;;717.30;1894.40;;;;;;5037313;28;20533;-74
2021/08/02 07:33:28;;;;;;;8.93;5.30;;;717.30;1894.40;;;;;;5037461;28;20040;-74
2021/08/02 07:35:54;;;;;;;9.98;4.55;;;717.30;1920.00;;;;;;5037479;28;20026;-74
2021/08/02 07:38:20;;;;;;;8.93;4.60;;;717.40;1868.80;;;;;;5036434;28;20029;-74
2021/08/02 07:40:46;;;;;;;12.60;5.43;;;717.50;1843.20;;;;;;5041249;28;20485;-76
2021/08/02 07:43:11;;;;;;;11.63;4.60;;;717.60;1868.80;;;;;;5039890;28;20026;-75
2021/08/02 07:45:37;;;;;;;8.80;4.50;;;717.60;1868.80;;;;;;5038513;28;20428;-74
2021/08/02 07:48:04;;;;;;;6.78;4.93;;;717.50;1868.80;;;;;;5038345;28;20068;-75
2021/08/02 07:50:29;;;;;;;10.93;4.82;;;717.70;1843.20;;;;;;5039582;28;20048;-75
2021/08/02 07:52:55;;;;;;;8.52;4.85;;;717.70;1843.20;;;;;;5041080;28;20466;-76
2021/08/02 07:55:21;;;;;;;8.75;4.18;;;717.70;1868.80;;;;;;5040452;28;20367;-75
2021/08/02 07:57:47;;;;;;;9.38;4.72;;;742.40;1843.20;;;;;;5041539;28;20030;-75
2021/08/02 08:00:16;;;;;;;8.80;4.93;;;742.50;1868.80;;;;;;5043031;28;20029;-75
2021/08/02 08:02:43;;;;;;;9.32;4.65;;;742.60;1868.80;;;;;;5046105;28;20026;-75
2021/08/02 08:05:09;;;;;;;8.65;5.15;;;742.60;1868.80;;;;;;5041483;28;20029;-74
2021/08/02 08:07:51;;;;;;;7.57;4.68;;;742.60;1868.80;;;;;;5038397;28;20049;-74
2021/08/02 08:10:21;;;;;;;9.82;4.20;;;742.60;1868.80;;;;;;5037538;28;20030;-74
2021/08/02 08:12:48;;;;;;;7.13;5.63;;;742.70;1817.60;;;;;;5037029;28;20021;-73
2021/08/02 08:15:15;;;;;;;8.88;4.57;;;742.70;1817.60;;;;;;5036756;28;20043;-77
2021/08/02 08:17:41;;;;;;;8.15;4.18;;;742.70;1817.60;;;;;;5036740;28;20021;-74
2021/08/02 08:20:09;;;;;;;9.68;5.30;;;742.70;1843.20;;;;;;5040374;28;20028;-74
2021/08/02 08:22:36;;;;;;;10.43;5.03;;;742.80;1817.60;;;;;;5037174;28;20025;-76
2021/08/02 08:25:04;;;;;;;10.35;4.70;;;742.80;1817.60;;;;;;5036914;28;20378;-74
2021/08/02 08:27:30;;;;;;;10.65;5.93;;;742.70;1792.00;;;;;;5036066;28;20116;-75
2021/08/02 08:29:56;;;;;;;8.73;4.65;;;742.60;1817.60;;;;;;5036223;28;20057;-75
2021/08/02 08:32:21;;;;;;;6.13;4.68;;;742.80;1792.00;;;;;;5036364;28;20053;-75
2021/08/02 08:34:48;;;;;;;10.00;4.97;;;742.90;1817.60;;;;;;5036103;28;20478;-75
2021/08/02 08:37:13;;;;;;;8.63;5.93;;;742.90;1766.40;;;;;;5036160;28;20018;-76
2021/08/02 08:39:39;;;;;;;9.98;5.05;;;743.00;1817.60;;;;;;5034875;28;20087;-74
2021/08/02 08:42:07;;;;;;;7.93;4.90;;;743.00;1766.40;;;;;;5036123;28;20096;-76
2021/08/02 08:44:34;;;;;;;10.13;5.55;;;743.10;1766.40;;;;;;5036143;28;20056;-75
2021/08/02 08:47:00;;;;;;;10.10;5.05;;;743.10;1792.00;;;;;;5036348;28;20415;-76
2021/08/02 08:49:26;;;;;;;9.57;5.40;;;743.10;1766.40;;;;;;5035979;28;20028;-75
2021/08/02 08:51:53;;;;;;;6.28;5.20;;;743.10;1792.00;;;;;;5034566;28;20417;-75
2021/08/02 08:54:20;;;;;;;7.28;5.55;;;743.30;1766.40;;;;;;5035475;28;20037;-75
2021/08/02 08:56:46;;;;;;;10.70;5.43;;;743.30;1792.00;;;;;;5035736;28;20048;-76
2021/08/02 08:59:16;;;;;;;7.55;4.75;;;743.30;1792.00;;;;;;5035926;28;20481;-77
2021/08/02 09:01:42;;;;;;;10.95;6.25;;;768.00;1792.00;;;;;;5034159;28;20056;-77
2021/08/02 09:04:08;;;;;;;6.00;5.40;;;768.10;1766.40;;;;;;5033096;28;20025;-77
2021/08/02 09:06:45;;;;;;;7.63;6.10;;;768.20;1792.00;;;;;;5035649;28;20531;-77
2021/08/02 09:09:21;;;;;;;9.05;6.03;;;768.20;1740.80;;;;;;5034159;28;20040;-75
2021/08/02 09:11:47;;;;;;;9.63;6.40;;;768.10;1740.80;;;;;;5035324;28;20030;-75
2021/08/02 09:14:15;;;;;;;8.15;6.05;;;768.20;1715.20;;;;;;5035585;28;20036;-78
2021/08/02 09:16:52;;;;;;;10.25;6.72;;;768.20;1689.60;;;;;;5035231;28;20017;-76
2021/08/02 09:19:18;;;;;;;9.88;6.65;;;768.40;1689.60;;;;;;5035499;28;20464;-74
2021/08/02 09:21:46;;;;;;;8.88;6.18;;;768.60;1689.60;;;;;;5035200;28;20022;-77
2021/08/02 09:24:12;;;;;;;8.45;6.15;;;768.70;1689.60;;;;;;5035112;28;20025;-77
2021/08/02 09:26:40;;;;;;;9.90;6.78;;;768.70;1689.60;;;;;;5034872;28;20046;-77
2021/08/02 09:29:09;;;;;;;9.75;6.78;;;768.70;1689.60;;;;;;5033506;28;20477;-77
2021/08/02 09:31:45;;;;;;;9.38;6.20;;;768.80;1689.60;;;;;;5033742;28;20041;-77
2021/08/02 09:34:11;;;;;;;7.45;6.32;;;768.80;1689.60;;;;;;5034611;28;20041;-76
2021/08/02 09:36:46;;;;;;;11.85;6.95;;;768.90;1664.00;;;;;;5035239;28;20028;-77
2021/08/02 09:39:14;;;;;;;10.77;7.43;;;768.90;1664.00;;;;;;5035196;28;20032;-78
2021/08/02 09:41:43;;;;;;;9.52;6.20;;;768.90;1689.60;;;;;;5034662;28;20587;-78
2021/08/02 09:44:25;;;;;;;9.75;7.13;;;793.70;1664.00;;;;;;5034785;28;20025;-77
2021/08/02 09:47:06;;;;;;;9.35;6.47;;;793.80;1689.60;;;;;;5034887;28;20148;-77
2021/08/02 09:49:44;;;;;;;8.50;7.07;;;793.90;1664.00;;;;;;5034594;28;20045;-77
2021/08/02 09:52:11;;;;;;;8.20;6.13;;;794.00;1612.80;;;;;;5034669;28;20068;-76
2021/08/02 09:54:37;;;;;;;7.97;7.20;;;794.10;1612.80;;;;;;5034582;28;20036;-78
2021/08/02 09:57:07;;;;;;;11.77;7.22;;;794.20;1689.60;;;;;;5034936;28;20486;-77
2021/08/02 09:59:41;;;;;;;8.50;5.80;;;794.40;1638.40;;;;;;5033475;28;20033;-77
2021/08/02 10:02:07;;;;;;;8.45;5.72;;;794.40;1587.20;;;;;;5034618;28;20029;-76
2021/08/02 10:04:33;;;;;;;7.35;5.75;;;794.50;1612.80;;;;;;5034327;28;20025;-77
2021/08/02 10:07:00;;;;;;;6.82;5.68;;;794.50;1612.80;;;;;;5034949;28;20536;-78
2021/08/02 10:09:28;;;;;;;7.57;5.72;;;794.50;1587.20;;;;;;5035461;28;20469;-77
2021/08/02 10:11:58;;;;;;;9.20;6.00;;;819.20;1612.80;;;;;;5037455;28;20024;-77
2021/08/02 10:14:29;;;;;;;10.70;6.18;;;819.30;1561.60;;;;;;5037229;28;20041;-77
2021/08/02 10:17:01;;;;;;;7.88;5.53;;;819.30;1587.20;;;;;;5043888;28;20045;-76
2021/08/02 10:19:50;;;;;;;7.32;5.22;;;819.30;1561.60;;;;;;5044242;28;20028;-77
2021/08/02 10:22:18;;;;;;;7.00;5.38;;;819.30;1561.60;;;;;;5038249;28;20030;-78
2021/08/02 10:24:47;;;;;;;5.85;5.13;;;819.50;1536.00;;;;;;5040443;28;20048;-77
2021/08/02 10:27:25;;;;;;;9.15;5.07;;;819.30;1536.00;;;;;;5040757;28;20120;-82
2021/08/02 10:29:51;;;;;;;8.13;3.92;;;819.50;1561.60;;;;;;5038220;28;20033;-77
2021/08/02 10:32:27;;;;;;;7.97;4.72;;;819.50;1536.00;;;;;;5040449;28;20032;-76
2021/08/02 10:34:56;;;;;;;6.05;4.05;;;819.50;1536.00;;;;;;5040422;28;20397;-77
2021/08/02 10:37:36;;;;;;;8.90;3.88;;;819.60;1561.60;;;;;;5039533;28;20469;-78
2021/08/02 10:40:07;;;;;;;7.50;4.18;;;819.70;1561.60;;;;;;5044728;28;20033;-77
2021/08/02 10:42:44;;;;;;;5.15;3.58;;;819.70;1536.00;;;;;;5046308;28;20033;-80
2021/08/02 10:45:10;;;;;;;10.63;4.22;;;819.80;1484.80;;;;;;5040988;28;20060;-76
2021/08/02 10:47:40;;;;;;;3.78;3.25;;;819.80;1510.40;;;;;;5034205;28;20021;-77
2021/08/02 10:50:07;;;;;;;6.15;3.30;;;819.80;1459.20;;;;;;5033992;28;20030;-78
2021/08/02 10:52:34;;;;;;;5.15;3.83;;;819.80;1484.80;;;;;;5033915;28;20018;-78
2021/08/02 10:55:00;;;;;;;5.30;3.60;;;819.80;1433.60;;;;;;5033801;28;20048;-77
2021/08/02 10:57:26;;;;;;;5.70;3.60;;;819.80;1459.20;;;;;;5033636;28;20018;-77
2021/08/02 10:59:52;;;;;;;6.90;3.60;;;819.80;1433.60;;;;;;5032464;28;20033;-77
2021/08/02 11:02:18;;;;;;;8.23;3.78;;;819.70;1484.80;;;;;;5033008;28;20070;-78
2021/08/02 11:04:53;;;;;;;7.00;3.67;;;819.60;1510.40;;;;;;5032458;28;20116;-78
2021/08/02 11:07:19;;;;;;;7.07;3.53;;;819.60;1510.40;;;;;;5034220;28;20018;-77
2021/08/02 11:09:47;;;;;;;12.10;3.33;;;819.60;1484.80;;;;;;5034018;28;20079;-76
2021/08/02 11:12:13;;;;;;;6.60;3.20;;;819.50;1484.80;;;;;;5033598;28;20053;-78
2021/08/02 11:14:55;;;;;;;5.60;3.38;;;819.90;1459.20;;;;;;5033786;28;20548;-76
2021/08/02 11:17:29;;;;;;;8.10;3.60;;;820.10;1510.40;;;;;;5032599;28;20473;-76
2021/08/02 11:20:00;;;;;;;7.75;3.20;;;820.10;1459.20;;;;;;5032702;28;20452;-78
2021/08/02 11:22:26;;;;;;;9.20;3.67;;;820.10;1459.20;;;;;;5033917;28;20035;-78
2021/08/02 11:24:57;;;;;;;7.65;3.58;;;844.80;1484.80;;;;;;5033402;28;20022;-77
2021/08/02 11:27:23;;;;;;;6.68;3.45;;;844.90;1510.40;;;;;;5032118;28;20054;-75
2021/08/02 11:29:53;;;;;;;8.70;3.75;;;844.90;1484.80;;;;;;5033613;28;20029;-75
2021/08/02 11:32:21;;;;;;;6.88;3.75;;;844.90;1459.20;;;;;;5033438;28;20057;-77
2021/08/02 11:34:54;;;;;;;6.93;3.53;;;844.90;1484.80;;;;;;5032221;28;20048;-77
2021/08/02 11:37:25;;;;;;;5.35;3.20;;;845.00;1459.20;;;;;;5033466;28;20025;-77
2021/08/02 11:40:01;;;;;;;6.50;3.67;;;845.00;1459.20;;;;;;5033416;28;20021;-77
2021/08/02 11:42:32;;;;;;;5.10;3.72;;;845.10;1459.20;;;;;;5033261;28;20067;-76
2021/08/02 11:44:59;;;;;;;5.07;3.35;;;845.10;1484.80;;;;;;5033494;28;20048;-79
2021/08/02 11:47:28;;;;;;;4.75;3.33;;;845.40;1433.60;;;;;;5031990;28;20083;-77
2021/08/02 11:49:57;;;;;;;5.38;3.28;;;845.40;1433.60;;;;;;5033124;28;20018;-77
2021/08/02 11:52:25;;;;;;;7.10;3.70;;;845.30;1433.60;;;;;;5032200;28;20033;-77
2021/08/02 11:55:06;;;;;;;7.80;4.18;;;845.30;1408.00;;;;;;5033313;28;20026;-78
2021/08/02 11:57:33;;;;;;;6.85;4.30;;;845.40;1408.00;;;;;;5033659;28;20049;-76
2021/08/02 12:00:02;;;;;;;6.22;3.83;;;845.50;1382.40;;;;;;5033351;28;20033;-78
2021/08/02 12:02:42;;;;;;;7.45;3.80;;;845.70;1433.60;;;;;;5032114;28;20090;-78
2021/08/02 12:05:28;;;;;;;7.75;2.75;;;870.50;1382.40;;;;;;5031998;28;20446;-76
2021/08/02 12:07:55;;;;;;;7.72;3.70;;;845.60;1408.00;;;;;;5033339;28;20057;-79
2021/08/02 12:10:23;;;;;;;4.03;3.20;;;870.50;1408.00;;;;;;5031826;28;20032;-77
2021/08/02 12:13:01;;;;;;;8.68;3.40;;;845.70;1433.60;;;;;;5032065;28;20025;-78
2021/08/02 12:15:29;;;;;;;4.90;3.58;;;870.40;1356.80;;;;;;5035481;28;20033;-78
2021/08/02 12:17:56;;;;;;;8.68;3.78;;;870.50;1408.00;;;;;;5036634;28;20477;-78